2000 Intense Tropical Cyclone ELINE:LEONE (2000032S11116)


IBTrACS version v04r00. Visit IBTrACS website for data access.
Please direct all questions to the IBTrACS Q and A forum

Storm track - Intensity - Wind Radii - Intensity Data - Source Data - All data

Summary Information

Satellite image near maximum intensity
Storm ID 2000032S11116
Start Feb 1 04Z
Landfall Feb 17 18Z, Feb 22 09Z
Max Intensity 115 kt (Feb 22 06Z), 930 mb (Feb 22 06Z)
End Feb 29 12Z
ATCF IDs ,SH112000
Track status Best track data.

Storm track plot

Map of storm track

Intensity plots

Map of storm track

Radial wind information

Map of storm track

Position and Intensity Table

BASIN ISO_TIME_________ NATURE LAT LON WMO WIND WMO PRES USA WIND REUNION WIND REUNION PRES BOM WIND BOM PRES NEUMANN WIND
degrees north degrees east kts mb kts kts mb kts mb kts
SI 2000-02-01 04:00:00 NR -10.50 115.50 25 1000 25 1000
SI 06:00:00 NR -10.50 115.24 25 1000
SI 09:00:00 NR -10.50 114.84 25 1000
SI 10:00:00 NR -10.50 114.70 25 1000 25 1000
SI 12:00:00 NR -10.50 114.43 25 1000
SI 15:00:00 NR -10.50 114.03 25 1000
SI 16:00:00 NR -10.50 113.90 25 1000 25 1000
SI 18:00:00 NR -10.50 113.66 25 1000
SI 21:00:00 NR -10.50 113.31 25 1000
SI 22:00:00 NR -10.50 113.20 25 1000 25 1000
SI 2000-02-02 00:00:00 NR -10.49 112.97 25 1000
SI 03:00:00 NR -10.49 112.62 25 1000
SI 04:00:00 NR -10.50 112.50 25 1000 25 1000
SI 06:00:00 NR -10.52 112.26 25 1000
SI 09:00:00 NR -10.57 111.91 25 1000
SI 10:00:00 NR -10.60 111.80 25 1000 25 1000
SI 12:00:00 NR -10.66 111.60 25 1000
SI 15:00:00 NR -10.76 111.30 25 1000
SI 16:00:00 NR -10.80 111.20 25 1000 25 1000
SI 18:00:00 NR -10.87 110.97 25 1000
SI 21:00:00 NR -10.97 110.61 25 1000
SI 22:00:00 NR -11.00 110.50 25 1000 25 1000
SI 2000-02-03 00:00:00 TS -11.04 110.33 25 25 1000 25
SI 03:00:00 TS -11.13 110.01 25 25 1000 25
SI 04:00:00 TS -11.15 109.89 25 1000 25 25 1000 25
SI 06:00:00 TS -11.23 109.63 25 25 1000 25
SI 09:00:00 TS -11.38 109.21 25 25 1000 25
SI 10:00:00 TS -11.43 109.07 25 1000 25 25 1000 25
SI 12:00:00 TS -11.53 108.75 25 26 1000 25
SI 15:00:00 TS -11.68 108.29 25 29 1000 25
SI 16:00:00 TS -11.73 108.14 30 1000 25 30 1000 25
SI 18:00:00 TS -11.84 107.84 25 31 998 25
SI 21:00:00 TS -12.01 107.40 27 34 995 27
SI 22:00:00 TS -12.06 107.25 35 995 28 35 995 28
SI 2000-02-04 00:00:00 TS -12.17 106.97 30 36 993 30
SI 03:00:00 TS -12.33 106.51 32 39 990 32
SI 04:00:00 TS -12.39 106.35 40 990 33 40 990 33
SI 06:00:00 TS -12.53 106.03 35 43 988 35
SI 09:00:00 TS -12.80 105.62 35 48 985 35
SI 10:00:00 TS -12.91 105.50 50 985 35 50 985 35
SI 12:00:00 TS -13.11 105.28 35 50 985 35
SI 15:00:00 TS -13.40 105.04 35 50 985 35
SI 16:00:00 TS -13.49 104.97 50 985 35 50 985 35
SI 18:00:00 TS -13.65 104.81 35 51 983 35
SI 21:00:00 TS -13.82 104.47 45 54 980 45
SI 22:00:00 TS -13.86 104.35 55 980 48 55 980 48
SI 2000-02-05 00:00:00 TS -13.95 104.11 55 56 978 55
SI 03:00:00 TS -14.13 103.79 55 59 975 55
SI 04:00:00 TS -14.20 103.69 60 975 55 60 975 55
SI 06:00:00 TS -14.35 103.47 55 61 973 55
SI 09:00:00 TS -14.56 103.13 55 64 970 55
SI 10:00:00 TS -14.63 103.01 65 970 55 65 970 55
SI 12:00:00 TS -14.79 102.78 55 66 968 55
SI 15:00:00 TS -15.07 102.48 55 69 965 55
SI 16:00:00 TS -15.16 102.38 70 965 55 70 965 55
SI 18:00:00 TS -15.37 102.17 55 71 963 55
SI 21:00:00 TS -15.64 101.80 57 74 960 57
SI 22:00:00 TS -15.72 101.67 75 960 58 75 960 58
SI 2000-02-06 00:00:00 TS -15.88 101.41 60 75 960 60
SI 03:00:00 TS -16.14 100.99 62 75 960 62
SI 04:00:00 TS -16.23 100.84 75 960 63 75 960 63
SI 06:00:00 TS -16.45 100.53 65 75 960 65
SI 09:00:00 TS -16.75 100.08 67 75 960 67
SI 10:00:00 TS -16.83 99.93 75 960 68 75 960 68
SI 12:00:00 TS -16.95 99.65 70 75 960 70
SI 15:00:00 TS -17.09 99.27 72 75 960 72
SI 16:00:00 TS -17.13 99.15 75 960 73 75 960 73
SI 18:00:00 TS -17.20 98.89 75 73 961 75
SI 21:00:00 TS -17.28 98.49 72 70 964 72
SI 22:00:00 TS -17.30 98.34 70 965 71 70 965 71
SI 2000-02-07 00:00:00 TS -17.34 98.05 70 68 966 70
SI 03:00:00 TS -17.41 97.57 67 65 969 67
SI 04:00:00 TS -17.43 97.40 65 970 66 65 970 66
SI 06:00:00 TS -17.43 97.03 65 60 975 61 973 65
SI 09:00:00 TS -17.41 96.45 65 57 977 56 978 65
SI 10:00:00 TS -17.40 96.25 55 980 65 56 978 55 980 65
SI 12:00:00 TS -17.40 95.83 65 55 980 53 981 65
SI 15:00:00 TS -17.39 95.14 60 52 981 50 984 60
SI 16:00:00 TS -17.40 94.90 50 985 58 51 982 50 985 58
SI 18:00:00 TS -17.43 94.44 55 50 983 46 986 55
SI 21:00:00 TS -17.58 93.75 52 47 985 41 989 52
SI 22:00:00 TS -17.63 93.53 40 990 51 46 985 40 990 51
SI 2000-02-08 00:00:00 TS -17.68 93.08 50 45 987 40 990 50
SI 03:00:00 TS -17.59 92.42 47 42 988 40 990 47
SI 04:00:00 TS -17.55 92.20 40 990 46 41 989 40 990 46
SI 06:00:00 TS -17.46 91.76 45 40 990 40 990 45
SI 09:00:00 TS -17.36 91.07 42 39 991 40 990 42
SI 10:00:00 TS -17.33 90.85 40 990 41 38 991 40 990 41
SI 12:00:00 TS -17.28 90.41 40 38 992 40 990 40
SI 15:00:00 TS -17.21 89.82 40 36 993 40 990 40
SI 16:00:00 TS -17.20 89.62 40 990 40 35 994 40 990 40
SI 18:00:00 TS -17.19 89.19 35 995 40 35 995 40 990 40
SI 21:00:00 TS -17.33 88.50 40 37 992 40 990 40
SI 22:00:00 TS -17.38 88.21 40 38 991 40 990 40
SI 2000-02-09 00:00:00 TS -17.53 87.63 40 990 40 40 990 40
SI 03:00:00 TS -17.72 86.78 40 41 989 40
SI 06:00:00 TS -17.90 85.90 43 988 40 43 988 40
SI 09:00:00 TS -18.13 85.07 40 43 988 40
SI 12:00:00 TS -18.30 84.23 43 988 40 43 988 40
SI 15:00:00 TS -18.34 83.32 40 43 988 40
SI 18:00:00 TS -18.30 82.40 43 988 40 43 988 40
SI 21:00:00 TS -18.26 81.50 40 41 989 40
SI 2000-02-10 00:00:00 TS -18.20 80.67 40 990 40 40 990 40
SI 03:00:00 TS -18.12 79.92 40 40 990 40
SI 06:00:00 TS -18.03 79.23 40 990 40 40 990 40
SI 09:00:00 TS -17.92 78.59 37 40 990 37
SI 12:00:00 TS -17.83 77.97 40 990 35 40 990 35
SI 15:00:00 TS -17.81 77.32 35 39 991 35
SI 18:00:00 TS -17.80 76.63 38 992 35 38 992 35
SI 21:00:00 TS -17.72 75.92 35 38 992 35
SI 2000-02-11 00:00:00 TS -17.63 75.17 38 992 35 38 992 35
SI 03:00:00 TS -17.58 74.39 35 36 993 35
SI 06:00:00 TS -17.53 73.60 35 995 35 35 995 35
SI 09:00:00 TS -17.51 72.83 35 35 995 35
SI 12:00:00 TS -17.47 72.07 35 995 35 35 995 35
SI 15:00:00 TS -17.38 71.29 35 36 993 35
SI 18:00:00 TS -17.23 70.57 38 992 35 38 992 35
SI 21:00:00 TS -17.01 69.92 37 39 991 37
SI 2000-02-12 00:00:00 TS -16.77 69.33 40 990 40 40 990 40
SI 03:00:00 TS -16.56 68.79 40 40 990 40
SI 06:00:00 TS -16.40 68.27 40 990 40 40 990 40
SI 09:00:00 TS -16.32 67.72 42 40 990 42
SI 12:00:00 TS -16.27 67.13 40 990 45 40 990 45
SI 15:00:00 TS -16.19 66.50 45 41 989 45
SI 18:00:00 TS -16.10 65.83 43 988 45 43 988 45
SI 21:00:00 TS -15.96 65.13 45 43 988 45
SI 2000-02-13 00:00:00 TS -15.83 64.47 43 988 45 43 988 45
SI 03:00:00 TS -15.78 63.88 45 43 988 45
SI 06:00:00 TS -15.80 63.37 43 988 45 43 988 45
SI 09:00:00 TS -15.89 62.88 47 43 988 47
SI 12:00:00 TS -16.03 62.43 43 988 50 43 988 50
SI 15:00:00 TS -16.17 61.98 55 46 985 55
SI 18:00:00 TS -16.37 61.57 50 983 60 50 983 60
SI 21:00:00 TS -16.68 61.23 65 55 979 65
SI 2000-02-14 00:00:00 TS -17.00 60.87 60 975 70 60 975 70
SI 03:00:00 TS -17.24 60.39 70 60 975 70
SI 06:00:00 TS -17.43 59.87 60 975 70 60 975 70
SI 09:00:00 TS -17.62 59.36 70 60 975 70
SI 12:00:00 TS -17.80 58.87 60 975 70 60 975 70
SI 15:00:00 TS -17.97 58.40 70 57 976 70
SI 18:00:00 TS -18.13 57.97 55 978 70 55 978 70
SI 21:00:00 TS -18.30 57.54 70 55 978 70
SI 2000-02-15 00:00:00 TS -18.47 57.13 55 978 70 55 978 70
SI 03:00:00 TS -18.64 56.71 67 55 979 67
SI 06:00:00 TS -18.80 56.30 55 980 65 55 980 65
SI 09:00:00 TS -18.91 55.92 65 55 979 65
SI 12:00:00 TS -19.03 55.57 55 978 65 55 978 65
SI 15:00:00 TS -19.25 55.22 65 57 976 65
SI 18:00:00 TS -19.50 54.87 60 975 65 60 975 65
SI 21:00:00 TS -19.76 54.49 65 60 974 65
SI 2000-02-16 00:00:00 TS -20.00 54.07 60 973 65 60 973 65
SI 03:00:00 TS -20.22 53.54 65 62 971 65
SI 06:00:00 TS -20.37 53.00 65 970 65 65 970 65
SI 09:00:00 TS -20.42 52.51 65 65 970 65
SI 12:00:00 TS -20.40 52.10 65 970 65 65 970 65
SI 15:00:00 TS -20.35 51.81 65 67 967 65
SI 18:00:00 TS -20.27 51.57 70 965 65 70 965 65
SI 21:00:00 TS -20.14 51.26 65 70 965 65
SI 2000-02-17 00:00:00 TS -20.03 50.93 70 965 65 70 965 65
SI 03:00:00 TS -19.99 50.62 72 72 962 72
SI 06:00:00 TS -19.97 50.27 75 960 80 75 960 80
SI 09:00:00 TS -19.93 49.87 80 77 956 80
SI 12:00:00 TS -19.87 49.43 80 953 80 80 953 80
SI 15:00:00 TS -19.75 48.98 77 85 946 77
SI 18:00:00 TS -19.57 48.50 90 940 75 90 940 75
SI 21:00:00 TS -19.28 48.03 70 70
SI 2000-02-18 00:00:00 TS -19.07 47.53 65 65
SI 03:00:00 TS -19.10 46.97 55 55
SI 06:00:00 TS -19.23 46.37 45 45
SI 09:00:00 TS -19.29 45.71 37 37
SI 12:00:00 TS -19.37 45.10 30 30
SI 15:00:00 TS -19.50 44.62 30 30
SI 18:00:00 TS -19.67 44.20 30 30
SI 21:00:00 TS -19.86 43.74 32 32
SI 2000-02-19 00:00:00 TS -20.07 43.30 30 999 35 30 999 35
SI 03:00:00 TS -20.28 42.88 35 30 998 35
SI 06:00:00 TS -20.50 42.50 30 997 35 30 997 35
SI 09:00:00 TS -20.73 42.18 35 32 996 35
SI 12:00:00 TS -20.97 41.90 35 995 35 35 995 35
SI 15:00:00 TS -21.24 41.62 35 37 993 35
SI 18:00:00 TS -21.50 41.30 40 992 35 40 992 35
SI 21:00:00 TS -21.74 40.86 40 42 990 40
SI 2000-02-20 00:00:00 TS -21.93 40.37 45 988 45 45 988 45
SI 03:00:00 TS -22.04 39.92 50 47 985 50
SI 06:00:00 TS -22.10 39.47 50 983 55 50 983 55
SI 09:00:00 TS -22.16 38.99 55 52 980 55
SI 12:00:00 TS -22.17 38.53 55 978 55 55 978 55
SI 15:00:00 TS -22.10 38.15 60 57 976 60
SI 18:00:00 TS -22.00 37.83 60 975 65 60 975 65
SI 21:00:00 TS -21.94 37.59 65 60 975 65
SI 2000-02-21 00:00:00 TS -21.87 37.40 60 975 65 60 975 65
SI 03:00:00 TS -21.74 37.20 65 60 975 65
SI 06:00:00 TS -21.60 37.00 60 975 65 60 975 65
SI 09:00:00 TS -21.46 36.79 67 62 972 67
SI 12:00:00 TS -21.33 36.57 65 970 70 65 970 70
SI 15:00:00 TS -21.22 36.34 80 72 962 80
SI 18:00:00 TS -21.10 36.10 80 955 90 80 955 90
SI 21:00:00 TS -20.95 35.84 95 87 945 95
SI 2000-02-22 00:00:00 TS -20.80 35.57 95 935 100 95 935 100
SI 03:00:00 TS -20.70 35.30 107 97 932 107
SI 06:00:00 TS -20.60 34.97 100 930 115 100 930 115
SI 09:00:00 TS -20.49 34.52 102 87 945 102
SI 12:00:00 TS -20.33 34.00 75 960 90 75 960 90
SI 15:00:00 TS -20.07 33.49 72 72
SI 18:00:00 TS -19.80 32.93 55 55
SI 21:00:00 TS -19.63 32.32 50 50
SI 2000-02-23 00:00:00 TS -19.50 31.70 45 45
SI 03:00:00 TS -19.34 31.14 37 37
SI 06:00:00 TS -19.20 30.62 30 30
SI 09:00:00 TS -19.11 30.15 27 27
SI 12:00:00 TS -19.13 29.77 25 25
SI 15:00:00 NR -19.39 29.49
SI 18:00:00 NR -19.50 29.20
SI 21:00:00 NR -19.61 28.89
SI 2000-02-24 00:00:00 NR -19.70 28.60
SI 03:00:00 NR -19.75 28.36
SI 06:00:00 NR -19.80 28.10
SI 09:00:00 NR -19.90 27.71
SI 12:00:00 NR -20.00 27.30
SI 15:00:00 NR -20.06 27.00
SI 18:00:00 NR -20.10 26.70
SI 21:00:00 NR -20.16 26.32
SI 2000-02-25 00:00:00 NR -20.20 25.90
SI 03:00:00 NR -20.20 25.45
SI 06:00:00 NR -20.20 25.00
SI 09:00:00 NR -20.25 24.58
SI 12:00:00 NR -20.30 24.20
SI 15:00:00 NR -20.31 23.89
SI 18:00:00 NR -20.30 23.60
SI 21:00:00 NR -20.30 23.26
SI 2000-02-26 00:00:00 NR -20.30 22.90
SI 03:00:00 NR -20.29 22.53
SI 06:00:00 NR -20.30 22.20
SI 09:00:00 NR -20.35 21.94
SI 12:00:00 NR -20.40 21.70
SI 15:00:00 NR -20.40 21.45
SI 18:00:00 NR -20.40 21.20
SI 21:00:00 NR -20.44 20.94
SI 2000-02-27 00:00:00 NR -20.50 20.70
SI 03:00:00 NR -20.55 20.49
SI 06:00:00 NR -20.60 20.30
SI 09:00:00 NR -20.64 20.10
SI 12:00:00 NR -20.70 19.90
SI 15:00:00 NR -20.78 19.70
SI 18:00:00 NR -20.90 19.50
SI 21:00:00 NR -21.05 19.29
SI 2000-02-28 00:00:00 NR -21.20 19.10
SI 03:00:00 NR -21.29 18.93
SI 06:00:00 NR -21.40 18.80
SI 09:00:00 NR -21.58 18.72
SI 12:00:00 NR -21.80 18.70
SI 15:00:00 NR -22.04 18.73
SI 18:00:00 NR -22.30 18.80
SI 21:00:00 NR -22.55 18.86
SI 2000-02-29 00:00:00 NR -22.80 18.90
SI 03:00:00 NR -23.05 18.92
SI 06:00:00 NR -23.30 18.90
SI 09:00:00 NR -23.55 18.82
SI 12:00:00 TS -23.80 18.70

Source Information

Agency Information
USA bsh112000.txt
TOKYO
CMA
HKO
NEWDELHI
REUNION WMO-Best-Tracks.txt:Line=18902:eline
BOM IDCKMSTM0S.csv:Line=20516:LEON
NADI
WELLINGTON
DS824
TD9636
TD9635
NEUMANN tracks.sh:Storm=1185:LEONE/ELINE:11S:BSH112000
MLC

All available IBTrACS Data

SEASON BASIN SUBBASIN ISO_TIME_________ NATURE LAT LON WMO WIND WMO PRES WMO AGENCY DIST2LAND LANDFALL IFLAG USA AGENCY USA ATCF_ID USA LAT USA LON USA STATUS USA WIND USA SSHS REUNION LAT REUNION LON REUNION TYPE REUNION WIND REUNION PRES REUNION TNUM REUNION CI BOM LAT BOM LON BOM TYPE BOM WIND BOM PRES BOM CI BOM ROCI BOM POS_METHOD BOM PRES_METHOD NEUMANN LAT NEUMANN LON NEUMANN CLASS NEUMANN WIND STORM SPEED STORM DIR
Year degrees north degrees east kts mb km km degrees north degrees east kts 1 degrees north degrees east kts mb 1 1 degrees north degrees east kts mb 1 nmile degrees north degrees east kts kts degrees
2000 SI WA 2000-02-01 04:00:00 NR -10.50 115.50 25 1000 bom 187 187 ______O_______ -1 -10.50 115.50 20 25 1000 2.00 161 3 5 8 270
2000 SI WA 06:00:00 NR -10.50 115.24 190 190 ______P_______ -1 -10.50 115.24 20 25 1000 161 8 270
2000 SI WA 09:00:00 NR -10.50 114.84 191 190 ______P_______ -1 -10.50 114.84 20 25 1000 161 8 270
2000 SI WA 10:00:00 NR -10.50 114.70 25 1000 bom 190 190 ______O_______ -1 -10.50 114.70 20 25 1000 2.00 161 3 5 8 270
2000 SI WA 12:00:00 NR -10.50 114.43 191 191 ______P_______ -1 -10.50 114.43 20 25 1000 161 8 270
2000 SI WA 15:00:00 NR -10.50 114.03 201 201 ______P_______ -1 -10.50 114.03 20 25 1000 161 8 270
2000 SI WA 16:00:00 NR -10.50 113.90 25 1000 bom 205 205 ______O_______ -1 -10.50 113.90 20 25 1000 2.00 161 3 5 7 270
2000 SI WA 18:00:00 NR -10.50 113.66 213 213 ______P_______ -1 -10.50 113.66 20 25 1000 161 7 270
2000 SI WA 21:00:00 NR -10.50 113.31 219 219 ______P_______ -1 -10.50 113.31 20 25 1000 161 7 270
2000 SI WA 22:00:00 NR -10.50 113.20 25 1000 bom 222 222 ______O_______ -1 -10.50 113.20 20 25 1000 2.00 161 3 5 7 271
2000 SI WA 2000-02-02 00:00:00 NR -10.49 112.97 230 230 ______P_______ -1 -10.49 112.97 20 25 1000 161 7 271
2000 SI WA 03:00:00 NR -10.49 112.62 235 235 ______P_______ -1 -10.49 112.62 20 25 1000 161 7 269
2000 SI WA 04:00:00 NR -10.50 112.50 25 1000 bom 236 236 ______O_______ -1 -10.50 112.50 20 25 1000 2.00 161 3 5 7 266
2000 SI WA 06:00:00 NR -10.52 112.26 239 237 ______P_______ -1 -10.52 112.26 20 25 1000 161 7 263
2000 SI WA 09:00:00 NR -10.57 111.91 247 246 ______P_______ -1 -10.57 111.91 20 25 1000 161 7 260
2000 SI WA 10:00:00 NR -10.60 111.80 25 1000 bom 246 246 ______O_______ -1 -10.60 111.80 20 25 1000 2.00 161 3 5 6 255
2000 SI WA 12:00:00 NR -10.66 111.60 257 257 ______P_______ -1 -10.66 111.60 20 25 1000 161 6 251
2000 SI WA 15:00:00 NR -10.76 111.30 272 272 ______P_______ -1 -10.76 111.30 20 25 1000 161 6 250
2000 SI WA 16:00:00 NR -10.80 111.20 25 1000 bom 274 274 ______O_______ -1 -10.80 111.20 20 25 1000 2.00 161 3 5 7 253
2000 SI WA 18:00:00 NR -10.87 110.97 290 290 ______P_______ -1 -10.87 110.97 20 25 1000 161 7 254
2000 SI WA 21:00:00 NR -10.97 110.61 309 309 ______P_______ -1 -10.97 110.61 20 25 1000 161 7 254
2000 SI WA 22:00:00 NR -11.00 110.50 25 1000 bom 312 312 ______O_______ -1 -11.00 110.50 20 25 1000 2.00 161 3 5 6 255
2000 SI WA 2000-02-03 00:00:00 TS -11.04 110.33 316 316 O_____P_____O_ jtwc_sh SH112000 -11.00 110.40 TD 25 -1 -11.06 110.30 20 25 1000 161 -11.00 110.40 TC 25 6 255
2000 SI WA 03:00:00 TS -11.13 110.01 333 333 P_____P_____P_ SH112000 -11.09 110.01 TD 25 -1 -11.16 110.00 20 25 1000 161 -11.09 110.01 TC 25 7 255
2000 SI WA 04:00:00 TS -11.15 109.89 25 1000 bom 347 347 P_____O_____P_ SH112000 -11.12 109.88 TD 25 -1 -11.20 109.90 20 25 1000 2.00 161 3 5 -11.12 109.88 TC 25 8 254
2000 SI WA 06:00:00 TS -11.23 109.63 357 357 O_____P_____O_ jtwc_sh SH112000 -11.20 109.60 TD 25 -1 -11.29 109.70 20 25 1000 161 -11.20 109.60 TC 25 8 251
2000 SI WA 09:00:00 TS -11.38 109.21 394 394 P_____P_____P_ SH112000 -11.34 109.15 TD 25 -1 -11.45 109.34 20 25 1000 161 -11.34 109.15 TC 25 9 250
2000 SI WA 10:00:00 TS -11.43 109.07 25 1000 bom 399 399 P_____O_____P_ SH112000 -11.39 109.00 TD 25 -1 -11.50 109.20 20 25 1000 2.00 161 3 5 -11.39 109.00 TC 25 10 251
2000 SI WA 12:00:00 TS -11.53 108.75 415 415 O_____P_____O_ jtwc_sh SH112000 -11.50 108.70 TD 25 -1 -11.59 108.86 20 26 1000 161 -11.50 108.70 TC 25 10 252
2000 SI WA 15:00:00 TS -11.68 108.29 436 436 P_____P_____P_ SH112000 -11.65 108.29 TD 25 -1 -11.74 108.29 20 29 1000 161 -11.65 108.29 TC 25 10 251
2000 SI WA 16:00:00 TS -11.73 108.14 30 1000 bom 438 438 P_____O_____P_ SH112000 -11.70 108.16 TD 25 -1 -11.80 108.10 30 30 1000 2.50 161 3 5 -11.70 108.16 TC 25 9 250
2000 SI WA 18:00:00 TS -11.84 107.84 452 452 O_____P_____O_ jtwc_sh SH112000 -11.80 107.90 TD 25 -1 -11.93 107.72 30 31 998 161 -11.80 107.90 TC 25 9 249
2000 SI WA 21:00:00 TS -12.01 107.40 483 483 P_____P_____P_ SH112000 -11.94 107.51 TD 27 -1 -12.14 107.17 30 34 995 161 -11.94 107.51 TC 27 9 249
2000 SI WA 22:00:00 TS -12.06 107.25 35 995 bom 495 495 P_____O_____P_ SH112000 -11.99 107.38 TD 28 -1 -12.20 107.00 30 35 995 3.00 161 3 5 -11.99 107.38 TC 28 9 249
2000 SI WA 2000-02-04 00:00:00 TS -12.17 106.97 511 511 O_____P_____O_ jtwc_sh SH112000 -12.10 107.10 TD 30 -1 -12.31 106.71 30 36 993 161 -12.10 107.10 TC 30 9 250
2000 SI WA 03:00:00 TS -12.33 106.51 534 534 P_____P_____P_ SH112000 -12.27 106.59 TD 32 -1 -12.45 106.33 30 39 990 161 -12.27 106.59 TC 32 10 250
2000 SI WA 04:00:00 TS -12.39 106.35 40 990 bom 551 551 P_____O_____P_ SH112000 -12.34 106.42 TD 33 -1 -12.50 106.20 30 40 990 3.00 161 3 5 -12.34 106.42 TC 33 10 247
2000 SI WA 06:00:00 TS -12.53 106.03 572 572 O_____P_____O_ jtwc_sh SH112000 -12.50 106.10 TS 35 0 -12.59 105.90 30 43 988 161 -12.50 106.10 TC 35 10 240
2000 SI WA 09:00:00 TS -12.80 105.62 611 611 P_____P_____P_ SH112000 -12.83 105.71 TS 35 0 -12.74 105.44 30 48 985 161 -12.83 105.71 TC 35 10 234
2000 SI WA 10:00:00 TS -12.91 105.50 50 985 bom 623 623 P_____O_____P_ SH112000 -12.96 105.59 TS 35 0 -12.80 105.30 30 50 985 3.50 161 3 5 -12.96 105.59 TC 35 9 227
2000 SI WA 12:00:00 TS -13.11 105.28 649 649 O_____P_____O_ jtwc_sh SH112000 -13.20 105.40 TS 35 0 -12.92 105.04 30 50 985 161 -13.20 105.40 TC 35 8 222
2000 SI WA 15:00:00 TS -13.40 105.04 689 689 P_____P_____P_ SH112000 -13.54 105.21 TS 35 0 -13.12 104.70 30 50 985 161 -13.54 105.21 TC 35 7 218
2000 SI WA 16:00:00 TS -13.49 104.97 50 985 bom 700 700 P_____O_____P_ SH112000 -13.64 105.15 TS 35 0 -13.20 104.60 30 50 985 3.50 161 3 5 -13.64 105.15 TC 35 7 222
2000 SI WA 18:00:00 TS -13.65 104.81 726 726 O_____P_____O_ jtwc_sh SH112000 -13.80 105.00 TS 35 0 -13.36 104.42 30 51 983 161 -13.80 105.00 TC 35 7 236
2000 SI WA 21:00:00 TS -13.82 104.47 746 746 P_____P_____P_ SH112000 -13.92 104.62 TS 45 0 -13.62 104.18 30 54 980 161 -13.92 104.62 TC 45 7 245
2000 SI WA 22:00:00 TS -13.86 104.35 55 980 bom 760 760 P_____O_____P_ SH112000 -13.94 104.48 TS 48 0 -13.70 104.10 30 55 980 4.00 161 3 5 -13.94 104.48 TC 48 7 250
2000 SI WA 2000-02-05 00:00:00 TS -13.95 104.11 770 770 O_____P_____O_ jtwc_sh SH112000 -14.00 104.20 TS 55 0 -13.84 103.94 30 56 978 161 -14.00 104.20 TC 55 7 243
2000 SI WA 03:00:00 TS -14.13 103.79 802 802 P_____P_____P_ SH112000 -14.18 103.84 TS 55 0 -14.03 103.69 30 59 975 161 -14.18 103.84 TC 55 7 238
2000 SI WA 04:00:00 TS -14.20 103.69 60 975 bom 816 816 P_____O_____P_ SH112000 -14.26 103.73 TS 55 0 -14.10 103.60 30 60 975 4.00 161 3 5 -14.26 103.73 TC 55 8 235
2000 SI WA 06:00:00 TS -14.35 103.47 845 845 O_____P_____O_ jtwc_sh SH112000 -14.40 103.50 TS 55 0 -14.26 103.42 30 61 973 161 -14.40 103.50 TC 55 8 236
2000 SI WA 09:00:00 TS -14.56 103.13 883 883 P_____P_____P_ SH112000 -14.59 103.13 TS 55 0 -14.51 103.11 30 64 970 161 -14.59 103.13 TC 55 8 238
2000 SI WA 10:00:00 TS -14.63 103.01 65 970 bom 887 887 P_____O_____P_ SH112000 -14.65 103.02 TS 55 0 -14.60 103.00 40 65 970 4.50 161 3 5 -14.65 103.02 TC 55 8 236
2000 SI WA 12:00:00 TS -14.79 102.78 917 917 O_____P_____O_ jtwc_sh SH112000 -14.80 102.80 TS 55 0 -14.76 102.75 40 66 968 161 -14.80 102.80 TC 55 8 230
2000 SI WA 15:00:00 TS -15.07 102.48 961 961 P_____P_____P_ SH112000 -15.09 102.55 TS 55 0 -15.01 102.34 40 69 965 161 -15.09 102.55 TC 55 8 226
2000 SI WA 16:00:00 TS -15.16 102.38 70 965 bom 976 976 P_____O_____P_ SH112000 -15.20 102.47 TS 55 0 -15.10 102.20 40 70 965 4.50 161 3 5 -15.20 102.47 TC 55 9 225
2000 SI WA 18:00:00 TS -15.37 102.17 1006 1006 O_____P_____O_ jtwc_sh SH112000 -15.40 102.30 TS 55 0 -15.30 101.90 40 71 963 161 -15.40 102.30 TC 55 9 230
2000 SI WA 21:00:00 TS -15.64 101.80 1046 1046 P_____P_____P_ SH112000 -15.65 101.98 TS 57 0 -15.61 101.45 40 74 960 161 -15.65 101.98 TC 57 9 234
2000 SI WA 22:00:00 TS -15.72 101.67 75 960 bom 1061 1061 P_____O_____P_ SH112000 -15.73 101.86 TS 58 0 -15.70 101.30 40 75 960 4.50 161 3 5 -15.73 101.86 TC 58 9 237
2000 SI WA 2000-02-06 00:00:00 TS -15.88 101.41 1096 1096 O_____P_____O_ jtwc_sh SH112000 -15.90 101.60 TS 60 0 -15.83 101.03 40 75 960 161 -15.90 101.60 TC 60 9 237
2000 SI WA 03:00:00 TS -16.14 100.99 1137 1137 P_____P_____P_ SH112000 -16.20 101.17 TS 62 0 -16.02 100.64 40 75 960 161 -16.20 101.17 TC 62 10 237
2000 SI WA 04:00:00 TS -16.23 100.84 75 960 bom 1156 1156 P_____O_____P_ SH112000 -16.30 101.01 TS 63 0 -16.10 100.50 40 75 960 4.50 161 3 5 -16.30 101.01 TC 63 11 235
2000 SI WA 06:00:00 TS -16.45 100.53 1190 1190 O_____P_____O_ jtwc_sh SH112000 -16.50 100.70 TY 65 1 -16.35 100.20 40 75 960 161 -16.50 100.70 TC 65 11 235
2000 SI WA 09:00:00 TS -16.75 100.08 1239 1239 P_____P_____P_ SH112000 -16.76 100.24 TY 67 1 -16.72 99.74 40 75 960 161 -16.76 100.24 TC 67 10 237
2000 SI WA 10:00:00 TS -16.83 99.93 75 960 bom 1259 1259 P_____O_____P_ SH112000 -16.85 100.09 TY 68 1 -16.80 99.60 40 75 960 4.50 161 3 5 -16.85 100.09 TC 68 9 243
2000 SI WA 12:00:00 TS -16.95 99.65 1289 1289 O_____P_____O_ jtwc_sh SH112000 -17.00 99.80 TY 70 1 -16.86 99.35 40 75 960 161 -17.00 99.80 TC 70 8 248
2000 SI WA 15:00:00 TS -17.09 99.27 1319 1319 P_____P_____P_ SH112000 -17.22 99.40 TY 72 1 -16.82 99.01 40 75 960 161 -17.22 99.40 TC 72 8 250
2000 SI WA 16:00:00 TS -17.13 99.15 75 960 bom 1330 1330 P_____O_____P_ SH112000 -17.29 99.27 TY 73 1 -16.80 98.90 40 75 960 4.50 161 3 5 -17.29 99.27 TC 73 8 253
2000 SI WA 18:00:00 TS -17.20 98.89 1350 1350 O_____P_____O_ jtwc_sh SH112000 -17.40 99.00 TY 75 1 -16.79 98.68 40 73 961 161 -17.40 99.00 TC 75 8 256
2000 SI WA 21:00:00 TS -17.28 98.49 1382 1382 P_____P_____P_ SH112000 -17.52 98.56 TY 72 1 -16.79 98.33 40 70 964 161 -17.52 98.56 TC 72 8 259
2000 SI WA 22:00:00 TS -17.30 98.34 70 965 bom 1394 1394 P_____O_____P_ SH112000 -17.55 98.41 TY 71 1 -16.80 98.20 40 70 965 4.50 161 3 5 -17.55 98.41 TC 71 9 262
2000 SI WA 2000-02-07 00:00:00 TS -17.34 98.05 1412 1412 O_____P_____O_ jtwc_sh SH112000 -17.60 98.10 TY 70 1 -16.83 97.94 40 68 966 161 -17.60 98.10 TC 70 9 262
2000 SI WA 03:00:00 TS -17.41 97.57 1445 1445 P_____P_____P_ SH112000 -17.67 97.62 TY 67 1 -16.88 97.48 40 65 969 161 -17.67 97.62 TC 67 9 262
2000 SI WA 04:00:00 TS -17.43 97.40 65 970 bom 1458 1458 P_____O_____P_ SH112000 -17.69 97.45 TY 66 1 -16.90 97.30 40 65 970 4.50 161 3 5 -17.69 97.45 TC 66 10 268
2000 SI WA 06:00:00 TS -17.43 97.03 1483 1483 O____OP_____O_ jtwc_sh SH112000 -17.70 97.10 TY 65 1 -17.30 96.90 3 60 975 3.50 4.00 -16.92 96.91 40 61 973 161 -17.70 97.10 TC 65 11 271
2000 SI WA 09:00:00 TS -17.41 96.45 1517 1517 P____PP_____P_ SH112000 -17.66 96.58 TY 65 1 -17.30 96.37 3 57 977 -16.97 96.24 40 56 978 161 -17.66 96.58 TC 65 11 272
2000 SI WA 10:00:00 TS -17.40 96.25 55 980 bom 1537 1537 P____PO_____P_ SH112000 -17.64 96.40 TY 65 1 -17.30 96.19 3 56 978 -17.00 96.00 30 55 980 4.00 161 3 5 -17.64 96.40 TC 65 12 272
2000 SI WA 12:00:00 TS -17.40 95.83 1565 1565 O____OP_____O_ jtwc_sh SH112000 -17.60 96.00 TY 65 1 -17.30 95.80 3 55 980 3.50 4.00 -17.08 95.51 30 53 981 161 -17.60 96.00 TC 65 13 271
2000 SI WA 15:00:00 TS -17.39 95.14 1616 1616 P____PP_____P_ SH112000 -17.51 95.33 TY 60 0 -17.30 95.16 3 52 981 -17.24 94.74 30 50 984 161 -17.51 95.33 TC 60 13 270
2000 SI WA 16:00:00 TS -17.40 94.90 50 985 bom 1631 1631 P____PO_____P_ SH112000 -17.49 95.09 TY 58 0 -17.30 94.94 3 51 982 -17.30 94.50 30 50 985 3.50 161 3 5 -17.49 95.09 TC 58 13 267
2000 SI WA 18:00:00 TS -17.43 94.44 1668 1668 O____OP_____O_ jtwc_sh SH112000 -17.50 94.60 TS 55 0 -17.30 94.50 3 50 983 3.00 3.50 -17.42 94.04 30 46 986 161 -17.50 94.60 TC 55 13 261
2000 SI WA 21:00:00 TS -17.58 93.75 1730 1730 P____PP_____P_ SH112000 -17.72 93.86 TS 52 0 -17.31 93.89 3 47 985 -17.57 93.40 30 41 989 161 -17.72 93.86 TC 52 13 257
2000 SI WA 22:00:00 TS -17.63 93.53 40 990 bom 1753 1753 P____PO_____P_ SH112000 -17.80 93.61 TS 51 0 -17.31 93.69 3 46 985 -17.60 93.20 30 40 990 3.00 161 3 5 -17.80 93.61 TC 51 13 261
2000 SI WA 2000-02-08 00:00:00 TS -17.68 93.08 1792 1792 O____OP_____O_ jtwc_sh SH112000 -17.90 93.10 TS 50 0 -17.30 93.30 3 45 987 3.00 3.50 -17.62 92.82 30 40 990 161 -17.90 93.10 TC 50 13 272
2000 SI WA 03:00:00 TS -17.59 92.42 1842 1842 P____PP_____P_ SH112000 -17.75 92.33 TS 47 0 -17.26 92.74 3 42 988 -17.60 92.28 30 40 990 161 -17.75 92.33 TC 47 13 279
2000 SI WA 04:00:00 TS -17.55 92.20 40 990 bom 1851 1851 P____PO_____P_ SH112000 -17.67 92.08 TS 46 0 -17.25 92.54 3 41 989 -17.60 92.10 30 40 990 3.00 161 3 5 -17.67 92.08 TC 46 13 282
2000 SI WA 06:00:00 TS -17.46 91.76 1884 1884 O____OP_____O_ jtwc_sh SH112000 -17.50 91.60 TS 45 0 -17.20 92.10 3 40 990 2.50 3.00 -17.63 91.73 30 40 990 161 -17.50 91.60 TC 45 13 280
2000 SI WA 09:00:00 TS -17.36 91.07 1934 1933 P____PP_____P_ SH112000 -17.33 90.94 TS 42 0 -17.08 91.25 3 39 991 -17.69 91.18 30 40 990 161 -17.33 90.94 TC 42 13 278
2000 SI WA 10:00:00 TS -17.33 90.85 40 990 bom 1947 1947 P____PO_____P_ SH112000 -17.29 90.72 TS 41 0 -17.04 90.95 3 38 991 -17.70 91.00 30 40 990 3.00 161 3 5 -17.29 90.72 TC 41 13 277
2000 SI WA 12:00:00 TS -17.28 90.41 1975 1975 O____OP_____O_ jtwc_sh SH112000 -17.20 90.30 TS 40 0 -17.00 90.40 3 38 992 2.50 3.00 -17.71 90.66 30 40 990 161 -17.20 90.30 TC 40 12 277
2000 SI MM 15:00:00 TS -17.21 89.82 2001 2001 P____PP_____P_ SH112000 -17.04 89.66 TS 40 0 -17.05 89.79 3 36 993 -17.70 90.16 30 40 990 161 -17.04 89.66 TC 40 11 276
2000 SI MM 16:00:00 TS -17.20 89.62 40 990 bom 2012 2012 P____PO_____P_ SH112000 -17.01 89.44 TS 40 0 -17.10 89.60 3 35 994 -17.70 90.00 30 40 990 3.00 161 3 5 -17.01 89.44 TC 40 12 272
2000 SI MM 18:00:00 TS -17.19 89.19 35 995 reunion 2034 2034 O____OP_____O_ jtwc_sh SH112000 -17.00 89.00 TS 40 0 -17.20 89.20 3 35 995 2.50 2.50 -17.70 89.67 30 40 990 161 -17.00 89.00 TC 40 13 263
2000 SI MM 21:00:00 TS -17.33 88.50 2084 2084 P____PP_____P_ SH112000 -17.21 88.32 TS 40 0 -17.38 88.51 3 37 992 -17.70 89.17 30 40 990 161 -17.21 88.32 TC 40 14 258
2000 SI MM 22:00:00 TS -17.38 88.21 2112 2112 P____PO_____P_ SH112000 -17.31 88.09 TS 40 0 -17.45 88.26 3 38 991 -17.70 89.00 30 40 990 3.00 161 3 5 -17.31 88.09 TC 40 17 256
2000 SI MM 2000-02-09 00:00:00 TS -17.53 87.63 40 990 reunion 2158 2158 O____O______O_ jtwc_sh SH112000 -17.50 87.60 TS 40 0 -17.60 87.70 3 40 990 3.00 3.00 30 -17.50 87.60 TC 40 17 256
2000 SI MM 03:00:00 TS -17.72 86.78 2227 2227 P____P______P_ SH112000 -17.65 86.82 TS 40 0 -17.87 86.71 3 41 989 30 -17.65 86.82 TC 40 17 257
2000 SI MM 06:00:00 TS -17.90 85.90 43 988 reunion 2304 2304 O____O______O_ jtwc_sh SH112000 -17.80 86.00 TS 40 0 -18.10 85.70 3 43 988 3.00 3.00 -17.80 86.00 TC 40 17 256
2000 SI MM 09:00:00 TS -18.13 85.07 2375 2375 P____P______P_ SH112000 -18.07 85.17 TS 40 0 -18.24 84.88 3 43 988 -18.07 85.17 TC 40 16 256
2000 SI MM 12:00:00 TS -18.30 84.23 43 988 reunion 2455 2455 O____O______O_ jtwc_sh SH112000 -18.30 84.30 TS 40 0 -18.30 84.10 3 43 988 3.00 3.00 -18.30 84.30 TC 40 17 263
2000 SI MM 15:00:00 TS -18.34 83.32 2521 2521 P____P______P_ SH112000 -18.34 83.35 TS 40 0 -18.32 83.26 3 43 988 -18.34 83.35 TC 40 17 270
2000 SI MM 18:00:00 TS -18.30 82.40 43 988 reunion 2588 2505 O____O______O_ jtwc_sh SH112000 -18.30 82.40 TS 40 0 -18.30 82.40 3 43 988 3.00 3.00 -18.30 82.40 TC 40 17 272
2000 SI MM 21:00:00 TS -18.26 81.50 2495 2413 P____P______P_ SH112000 -18.26 81.52 TS 40 0 -18.27 81.47 3 41 989 -18.26 81.52 TC 40 17 273
2000 SI MM 2000-02-10 00:00:00 TS -18.20 80.67 40 990 reunion 2413 2342 O____O______O_ jtwc_sh SH112000 -18.20 80.70 TS 40 0 -18.20 80.60 3 40 990 3.00 3.00 -18.20 80.70 TC 40 15 275
2000 SI MM 03:00:00 TS -18.12 79.92 2332 2271 P____P______P_ SH112000 -18.16 79.92 TS 40 0 -18.06 79.90 3 40 990 -18.16 79.92 TC 40 14 277
2000 SI MM 06:00:00 TS -18.03 79.23 40 990 reunion 2260 2200 O____O______O_ jtwc_sh SH112000 -18.10 79.20 TS 40 0 -17.90 79.30 3 40 990 3.00 3.00 -18.10 79.20 TC 40 13 279
2000 SI MM 09:00:00 TS -17.92 78.59 2200 2140 P____P______P_ SH112000 -18.00 78.53 TS 37 0 -17.77 78.71 3 40 990 -18.00 78.53 TC 37 12 279
2000 SI MM 12:00:00 TS -17.83 77.97 40 990 reunion 2140 2077 O____O______O_ jtwc_sh SH112000 -17.90 77.90 TS 35 0 -17.70 78.10 3 40 990 3.00 3.00 -17.90 77.90 TC 35 12 275
2000 SI MM 15:00:00 TS -17.81 77.32 2067 2004 P____P______P_ SH112000 -17.85 77.25 TS 35 0 -17.74 77.45 3 39 991 -17.85 77.25 TC 35 13 272
2000 SI MM 18:00:00 TS -17.80 76.63 38 992 reunion 1994 1934 O____O______O_ jtwc_sh SH112000 -17.80 76.60 TS 35 0 -17.80 76.70 3 38 992 2.50 3.00 -17.80 76.60 TC 35 13 274
2000 SI MM 21:00:00 TS -17.72 75.92 1924 1853 P____P______P_ SH112000 -17.70 75.98 TS 35 0 -17.77 75.79 3 38 992 -17.70 75.98 TC 35 14 277
2000 SI MM 2000-02-11 00:00:00 TS -17.63 75.17 38 992 reunion 1853 1770 O____O______O_ jtwc_sh SH112000 -17.60 75.30 TS 35 0 -17.70 74.90 3 38 992 2.50 3.00 -17.60 75.30 TC 35 15 276
2000 SI MM 03:00:00 TS -17.58 74.39 1770 1690 P____P______P_ SH112000 -17.54 74.47 TS 35 0 -17.66 74.22 3 36 993 -17.54 74.47 TC 35 15 274
2000 SI MM 06:00:00 TS -17.53 73.60 35 995 reunion 1690 1618 O____O______O_ jtwc_sh SH112000 -17.50 73.60 TS 35 0 -17.60 73.60 3 35 995 2.50 2.50 -17.50 73.60 TC 35 15 273
2000 SI MM 09:00:00 TS -17.51 72.83 1608 1536 P____P______P_ SH112000 -17.50 72.79 TS 35 0 -17.53 72.90 3 35 995 -17.50 72.79 TC 35 15 273
2000 SI MM 12:00:00 TS -17.47 72.07 35 995 reunion 1536 1456 O____O______O_ jtwc_sh SH112000 -17.50 72.00 TS 35 0 -17.40 72.20 3 35 995 2.50 2.50 -17.50 72.00 TC 35 15 275
2000 SI MM 15:00:00 TS -17.38 71.29 1456 1388 P____P______P_ SH112000 -17.49 71.17 TS 35 0 -17.16 71.54 3 36 993 -17.49 71.17 TC 35 15 279
2000 SI MM 18:00:00 TS -17.23 70.57 38 992 reunion 1391 1333 O____O______O_ jtwc_sh SH112000 -17.40 70.40 TS 35 0 -16.90 70.90 3 38 992 3.00 3.00 -17.40 70.40 TC 35 14 286
2000 SI MM 21:00:00 TS -17.01 69.92 1326 1283 P____P______P_ SH112000 -17.17 69.75 TS 37 0 -16.68 70.26 3 39 991 -17.17 69.75 TC 37 13 292
2000 SI MM 2000-02-12 00:00:00 TS -16.77 69.33 40 990 reunion 1273 1231 O____O______O_ jtwc_sh SH112000 -16.90 69.20 TS 40 0 -16.50 69.60 3 40 990 3.00 3.00 -16.90 69.20 TC 40 12 293
2000 SI MM 03:00:00 TS -16.56 68.79 1231 1190 P____P______P_ SH112000 -16.68 68.74 TS 40 0 -16.32 68.89 3 40 990 -16.68 68.74 TC 40 11 290
2000 SI MM 06:00:00 TS -16.40 68.27 40 990 reunion 1190 1136 O____O______O_ jtwc_sh SH112000 -16.50 68.30 TS 40 0 -16.20 68.20 3 40 990 3.00 3.00 -16.50 68.30 TC 40 11 283
2000 SI MM 09:00:00 TS -16.32 67.72 1136 1088 P____P______P_ SH112000 -16.38 67.77 TS 42 0 -16.18 67.61 3 40 990 -16.38 67.77 TC 42 11 277
2000 SI MM 12:00:00 TS -16.27 67.13 40 990 reunion 1078 1026 O____O______O_ jtwc_sh SH112000 -16.30 67.20 TS 45 0 -16.20 67.00 3 40 990 2.50 3.00 -16.30 67.20 TC 45 12 276
2000 SI MM 15:00:00 TS -16.19 66.50 1026 975 P____P______P_ SH112000 -16.21 66.62 TS 45 0 -16.16 66.27 3 41 989 -16.21 66.62 TC 45 13 278
2000 SI MM 18:00:00 TS -16.10 65.83 43 988 reunion 965 915 O____O______O_ jtwc_sh SH112000 -16.10 66.00 TS 45 0 -16.10 65.50 3 43 988 3.00 3.00 -16.10 66.00 TC 45 13 280
2000 SI MM 21:00:00 TS -15.96 65.13 906 865 P____P______P_ SH112000 -15.93 65.35 TS 45 0 -16.00 64.70 3 43 988 -15.93 65.35 TC 45 13 281
2000 SI MM 2000-02-13 00:00:00 TS -15.83 64.47 43 988 reunion 865 813 O____O______O_ jtwc_sh SH112000 -15.80 64.70 TS 45 0 -15.90 64.00 3 43 988 3.00 3.00 -15.80 64.70 TC 45 12 278
2000 SI MM 03:00:00 TS -15.78 63.88 813 771 P____P______P_ SH112000 -15.76 64.07 TS 45 0 -15.81 63.51 3 43 988 -15.76 64.07 TC 45 11 272
2000 SI MM 06:00:00 TS -15.80 63.37 43 988 reunion 771 723 O____O______O_ jtwc_sh SH112000 -15.80 63.50 TS 45 0 -15.80 63.10 3 43 988 3.00 3.00 -15.80 63.50 TC 45 10 263
2000 SI MM 09:00:00 TS -15.89 62.88 723 684 P____P______P_ SH112000 -15.88 63.03 TS 47 0 -15.91 62.58 3 43 988 -15.88 63.03 TC 47 9 255
2000 SI MM 12:00:00 TS -16.03 62.43 43 988 reunion 676 629 O____O______O_ jtwc_sh SH112000 -16.00 62.60 TS 50 0 -16.10 62.10 3 43 988 3.00 3.00 -16.00 62.60 TC 50 9 252
2000 SI MM 15:00:00 TS -16.17 61.98 629 583 P____P______P_ SH112000 -16.11 62.08 TS 55 0 -16.28 61.78 3 46 985 -16.11 62.08 TC 55 9 248
2000 SI MM 18:00:00 TS -16.37 61.57 50 983 reunion 583 530 O____O______O_ jtwc_sh SH112000 -16.30 61.60 TS 60 0 -16.50 61.50 3 50 983 3.50 3.50 -16.30 61.60 TC 60 9 235
2000 SI MM 21:00:00 TS -16.68 61.23 530 483 P____P______P_ SH112000 -16.63 61.25 TS 65 1 -16.76 61.18 3 55 979 -16.63 61.25 TC 65 9 227
2000 SI MM 2000-02-14 00:00:00 TS -17.00 60.87 60 975 reunion 483 431 O____O______O_ jtwc_sh SH112000 -17.00 60.90 TY 70 1 -17.00 60.80 3 60 975 4.00 4.00 -17.00 60.90 TC 70 10 235
2000 SI MM 03:00:00 TS -17.24 60.39 431 380 P____P______P_ SH112000 -17.27 60.42 TY 70 1 -17.17 60.32 3 60 975 -17.27 60.42 TC 70 11 246
2000 SI MM 06:00:00 TS -17.43 59.87 60 975 reunion 380 331 O____O______O_ jtwc_sh SH112000 -17.50 59.90 TY 70 1 -17.30 59.80 3 60 975 3.50 4.00 -17.50 59.90 TC 70 11 248
2000 SI MM 09:00:00 TS -17.62 59.36 331 286 P____P______P_ SH112000 -17.71 59.39 TY 70 1 -17.44 59.29 3 60 975 -17.71 59.39 TC 70 10 249
2000 SI MM 12:00:00 TS -17.80 58.87 60 975 reunion 286 246 O____O______O_ jtwc_sh SH112000 -17.90 58.90 TY 70 1 -17.60 58.80 3 60 975 3.50 4.00 -17.90 58.90 TC 70 10 249
2000 SI MM 15:00:00 TS -17.97 58.40 246 225 P____P______P_ SH112000 -18.06 58.43 TY 70 1 -17.79 58.34 3 57 976 -18.06 58.43 TC 70 9 249
2000 SI MM 18:00:00 TS -18.13 57.97 55 978 reunion 225 201 O____O______O_ jtwc_sh SH112000 -18.20 58.00 TY 70 1 -18.00 57.90 3 55 978 3.50 4.00 -18.20 58.00 TC 70 9 248
2000 SI MM 21:00:00 TS -18.30 57.54 201 181 P____P______P_ SH112000 -18.35 57.59 TY 70 1 -18.20 57.45 3 55 978 -18.35 57.59 TC 70 9 247
2000 SI MM 2000-02-15 00:00:00 TS -18.47 57.13 55 978 reunion 183 179 O____O______O_ jtwc_sh SH112000 -18.50 57.20 TY 70 1 -18.40 57.00 3 55 978 4.00 4.00 -18.50 57.20 TC 70 9 247
2000 SI MM 03:00:00 TS -18.64 56.71 187 177 P____P______P_ SH112000 -18.65 56.80 TY 67 1 -18.62 56.53 3 55 979 -18.65 56.80 TC 67 9 247
2000 SI MM 06:00:00 TS -18.80 56.30 55 980 reunion 192 192 O____O______O_ jtwc_sh SH112000 -18.80 56.40 TY 65 1 -18.80 56.10 3 55 980 3.50 4.00 -18.80 56.40 TC 65 8 250
2000 SI MM 09:00:00 TS -18.91 55.92 214 214 P____P______P_ SH112000 -18.94 55.99 TY 65 1 -18.83 55.78 3 55 979 -18.94 55.99 TC 65 7 251
2000 SI MM 12:00:00 TS -19.03 55.57 55 978 reunion 223 201 O____O______O_ jtwc_sh SH112000 -19.10 55.60 TY 65 1 -18.90 55.50 3 55 978 4.00 4.00 -19.10 55.60 TC 65 7 243
2000 SI MM 15:00:00 TS -19.25 55.22 201 172 P____P______P_ SH112000 -19.28 55.25 TY 65 1 -19.17 55.17 3 57 976 -19.28 55.25 TC 65 8 235
2000 SI MM 18:00:00 TS -19.50 54.87 60 975 reunion 172 162 O____O______O_ jtwc_sh SH112000 -19.50 54.90 TY 65 1 -19.50 54.80 3 60 975 4.00 4.00 -19.50 54.90 TC 65 9 233
2000 SI MM 21:00:00 TS -19.76 54.49 157 157 P____P______P_ SH112000 -19.76 54.52 TY 65 1 -19.76 54.44 3 60 974 -19.76 54.52 TC 65 9 236
2000 SI MM 2000-02-16 00:00:00 TS -20.00 54.07 60 973 reunion 167 167 O____O______O_ jtwc_sh SH112000 -20.00 54.10 TY 65 1 -20.00 54.00 3 60 973 4.00 4.00 -20.00 54.10 TC 65 10 243
2000 SI MM 03:00:00 TS -20.22 53.54 203 203 P____P______P_ SH112000 -20.18 53.61 TY 65 1 -20.30 53.41 3 62 971 -20.18 53.61 TC 65 11 250
2000 SI MM 06:00:00 TS -20.37 53.00 65 970 reunion 241 241 O____O______O_ jtwc_sh SH112000 -20.30 53.10 TY 65 1 -20.50 52.80 4 65 970 4.50 4.50 -20.30 53.10 TC 65 10 258
2000 SI MM 09:00:00 TS -20.42 52.51 291 291 P____P______P_ SH112000 -20.38 52.62 TY 65 1 -20.50 52.29 4 65 970 -20.38 52.62 TC 65 8 268
2000 SI MM 12:00:00 TS -20.40 52.10 65 970 reunion 331 316 O____O______O_ jtwc_sh SH112000 -20.40 52.20 TY 65 1 -20.40 51.90 4 65 970 4.00 4.50 -20.40 52.20 TC 65 7 276
2000 SI MM 15:00:00 TS -20.35 51.81 316 294 P____P______P_ SH112000 -20.37 51.88 TY 65 1 -20.31 51.67 4 67 967 -20.37 51.88 TC 65 5 285
2000 SI MM 18:00:00 TS -20.27 51.57 70 965 reunion 294 261 O____O______O_ jtwc_sh SH112000 -20.30 51.60 TY 65 1 -20.20 51.50 4 70 965 4.50 4.50 -20.30 51.60 TC 65 6 292
2000 SI MM 21:00:00 TS -20.14 51.26 261 227 P____P______P_ SH112000 -20.20 51.25 TY 65 1 -20.03 51.28 4 70 965 -20.20 51.25 TC 65 6 291
2000 SI MM 2000-02-17 00:00:00 TS -20.03 50.93 70 965 reunion 218 188 O____O______O_ jtwc_sh SH112000 -20.10 50.90 TY 65 1 -19.90 51.00 4 70 965 4.50 4.50 -20.10 50.90 TC 65 6 284
2000 SI MM 03:00:00 TS -19.99 50.62 188 156 P____P______P_ SH112000 -20.04 50.61 TY 72 1 -19.88 50.63 4 72 962 -20.04 50.61 TC 72 6 276
2000 SI MM 06:00:00 TS -19.97 50.27 75 960 reunion 156 115 O____O______O_ jtwc_sh SH112000 -20.00 50.30 TY 80 1 -19.90 50.20 4 75 960 5.00 5.00 -20.00 50.30 TC 80 7 275
2000 SI MM 09:00:00 TS -19.93 49.87 115 73 P____P______P_ SH112000 -19.96 49.93 TY 80 1 -19.87 49.75 4 77 956 -19.96 49.93 TC 80 8 277
2000 SI MM 12:00:00 TS -19.87 49.43 80 953 reunion 62 20 O____O______O_ jtwc_sh SH112000 -19.90 49.50 TY 80 1 -19.80 49.30 4 80 953 5.00 5.00 -19.90 49.50 TC 80 9 283
2000 SI MM 15:00:00 TS -19.75 48.98 20 0 P____P______P_ SH112000 -19.77 49.01 TY 77 1 -19.69 48.90 4 85 946 -19.77 49.01 TC 77 9 289
2000 SI MM 18:00:00 TS -19.57 48.50 90 940 reunion 0 0 O____O______O_ jtwc_sh SH112000 -19.60 48.50 TY 75 1 -19.50 48.50 4 90 940 5.00 5.50 -19.60 48.50 TC 75 10 298
2000 SI MM 21:00:00 TS -19.28 48.03 0 0 P____P______P_ SH112000 -19.37 48.01 TY 70 1 -19.10 48.09 4 -19.37 48.01 TC 70 10 299
2000 SI MM 2000-02-18 00:00:00 TS -19.07 47.53 reunion 0 0 O____O______O_ jtwc_sh SH112000 -19.20 47.50 TY 65 1 -18.80 47.60 8 9.90 -19.20 47.50 TC 65 10 280
2000 SI MM 03:00:00 TS -19.10 46.97 0 0 P____P______P_ SH112000 -19.21 46.97 TY 55 0 -18.88 46.97 8 -19.21 46.97 TC 55 11 261
2000 SI MM 06:00:00 TS -19.23 46.37 reunion 0 0 O____O______O_ jtwc_sh SH112000 -19.30 46.40 TS 45 0 -19.10 46.30 8 9.90 -19.30 46.40 TC 45 12 261
2000 SI MM 09:00:00 TS -19.29 45.71 0 0 P____P______P_ SH112000 -19.33 45.74 TS 37 0 -19.22 45.65 8 -19.33 45.74 TC 37 12 264
2000 SI MM 12:00:00 TS -19.37 45.10 reunion 0 0 O____O______O_ jtwc_sh SH112000 -19.40 45.10 TD 30 -1 -19.30 45.10 8 9.90 -19.40 45.10 TC 30 11 259
2000 SI MM 15:00:00 TS -19.50 44.62 0 0 P____P______P_ SH112000 -19.58 44.57 TD 30 -1 -19.33 44.73 8 -19.58 44.57 TC 30 9 251
2000 SI MM 18:00:00 TS -19.67 44.20 reunion 23 23 O____O______O_ jtwc_sh SH112000 -19.80 44.10 TD 30 -1 -19.40 44.40 8 9.90 -19.80 44.10 TC 30 9 247
2000 SI MM 21:00:00 TS -19.86 43.74 74 74 P____P______P_ SH112000 -20.01 43.63 TD 32 -1 -19.55 43.97 8 -20.01 43.63 TC 32 9 245
2000 SI MM 2000-02-19 00:00:00 TS -20.07 43.30 30 999 reunion 94 94 O____O______O_ jtwc_sh SH112000 -20.20 43.20 TS 35 0 -19.80 43.50 2 30 999 2.00 2.50 -20.20 43.20 TC 35 9 243
2000 SI MM 03:00:00 TS -20.28 42.88 118 118 P____P______P_ SH112000 -20.35 42.83 TS 35 0 -20.14 42.98 2 30 998 -20.35 42.83 TC 35 9 240
2000 SI MM 06:00:00 TS -20.50 42.50 30 997 reunion 144 144 O____O______O_ jtwc_sh SH112000 -20.50 42.50 TS 35 0 -20.50 42.50 2 30 997 2.50 2.50 -20.50 42.50 TC 35 8 235
2000 SI MM 09:00:00 TS -20.73 42.18 155 150 P____P______P_ SH112000 -20.68 42.18 TS 35 0 -20.81 42.18 2 32 996 -20.68 42.18 TC 35 7 230
2000 SI MM 12:00:00 TS -20.97 41.90 35 995 reunion 171 171 O____O______O_ jtwc_sh SH112000 -20.90 41.90 TS 35 0 -21.10 41.90 3 35 995 2.50 2.50 -20.90 41.90 TC 35 7 226
2000 SI MM 15:00:00 TS -21.24 41.62 197 192 P____P______P_ SH112000 -21.14 41.67 TS 35 0 -21.42 41.53 3 37 993 -21.14 41.67 TC 35 8 226
2000 SI MM 18:00:00 TS -21.50 41.30 40 992 reunion 211 211 O____O______O_ jtwc_sh SH112000 -21.40 41.40 TS 35 0 -21.70 41.10 3 40 992 3.00 3.00 -21.40 41.40 TC 35 9 235
2000 SI MM 21:00:00 TS -21.74 40.86 243 243 P____P______P_ SH112000 -21.67 40.99 TS 40 0 -21.89 40.59 3 42 990 -21.67 40.99 TC 40 10 243
2000 SI MM 2000-02-20 00:00:00 TS -21.93 40.37 45 988 reunion 290 290 O____O______O_ jtwc_sh SH112000 -21.90 40.50 TS 45 0 -22.00 40.10 3 45 988 3.50 3.50 -21.90 40.50 TC 45 9 251
2000 SI MM 03:00:00 TS -22.04 39.92 340 339 P____P______P_ SH112000 -22.04 39.99 TS 50 0 -22.06 39.76 3 47 985 -22.04 39.99 TC 50 9 259
2000 SI MM 06:00:00 TS -22.10 39.47 50 983 reunion 381 357 O____O______O_ jtwc_sh SH112000 -22.10 39.50 TS 55 0 -22.10 39.40 3 50 983 3.50 3.50 -22.10 39.50 TC 55 9 262
2000 SI MM 09:00:00 TS -22.16 38.99 357 317 P____P______P_ SH112000 -22.12 39.08 TS 55 0 -22.23 38.79 3 52 980 -22.12 39.08 TC 55 9 266
2000 SI MM 12:00:00 TS -22.17 38.53 55 978 reunion 307 278 O____O______O_ jtwc_sh SH112000 -22.10 38.70 TS 55 0 -22.30 38.20 3 55 978 4.00 4.00 -22.10 38.70 TC 55 8 274
2000 SI MM 15:00:00 TS -22.10 38.15 267 237 P____P______P_ SH112000 -22.06 38.28 TS 60 0 -22.18 37.88 3 57 976 -22.06 38.28 TC 60 7 284
2000 SI MM 18:00:00 TS -22.00 37.83 60 975 reunion 237 217 O____O______O_ jtwc_sh SH112000 -22.00 37.90 TY 65 1 -22.00 37.70 3 60 975 4.00 4.00 -22.00 37.90 TC 65 5 287
2000 SI MM 21:00:00 TS -21.94 37.59 218 198 P____P______P_ SH112000 -21.96 37.62 TY 65 1 -21.91 37.54 3 60 975 -21.96 37.62 TC 65 4 288
2000 SI MM 2000-02-21 00:00:00 TS -21.87 37.40 60 975 reunion 198 180 O____O______O_ jtwc_sh SH112000 -21.90 37.40 TY 65 1 -21.80 37.40 3 60 975 4.00 4.00 -21.90 37.40 TC 65 4 298
2000 SI MM 03:00:00 TS -21.74 37.20 183 168 P____P______P_ SH112000 -21.81 37.19 TY 65 1 -21.60 37.21 3 60 975 -21.81 37.19 TC 65 5 306
2000 SI MM 06:00:00 TS -21.60 37.00 60 975 reunion 168 155 O____O______O_ jtwc_sh SH112000 -21.70 37.00 TY 65 1 -21.40 37.00 3 60 975 4.00 4.00 -21.70 37.00 TC 65 5 306
2000 SI MM 09:00:00 TS -21.46 36.79 155 136 P____P______P_ SH112000 -21.56 36.81 TY 67 1 -21.28 36.75 3 62 972 -21.56 36.81 TC 67 5 304
2000 SI MM 12:00:00 TS -21.33 36.57 65 970 reunion 138 118 O____O______O_ jtwc_sh SH112000 -21.40 36.60 TY 70 1 -21.20 36.50 4 65 970 4.50 4.50 -21.40 36.60 TC 70 5 300
2000 SI MM 15:00:00 TS -21.22 36.34 112 99 P____P______P_ SH112000 -21.25 36.35 TY 80 1 -21.16 36.32 4 72 962 -21.25 36.35 TC 80 5 298
2000 SI MM 18:00:00 TS -21.10 36.10 80 955 reunion 99 83 O____O______O_ jtwc_sh SH112000 -21.10 36.10 TY 90 2 -21.10 36.10 4 80 955 5.00 5.00 -21.10 36.10 TC 90 5 300
2000 SI MM 21:00:00 TS -20.95 35.84 72 53 P____P______P_ SH112000 -20.94 35.91 TY 95 2 -20.96 35.71 4 87 945 -20.94 35.91 TC 95 6 301
2000 SI MM 2000-02-22 00:00:00 TS -20.80 35.57 95 935 reunion 53 30 O____O______O_ jtwc_sh SH112000 -20.80 35.70 TY 100 3 -20.80 35.30 4 95 935 5.50 5.50 -20.80 35.70 TC 100 6 296
2000 SI MM 03:00:00 TS -20.70 35.30 30 15 P____P______P_ SH112000 -20.69 35.45 TY 107 3 -20.71 35.01 4 97 932 -20.69 35.45 TC 107 6 290
2000 SI MM 06:00:00 TS -20.60 34.97 100 930 reunion 15 0 O____O______O_ jtwc_sh SH112000 -20.60 35.10 TY 115 4 -20.60 34.70 4 100 930 6.00 6.00 -20.60 35.10 TC 115 8 286
2000 SI MM 09:00:00 TS -20.49 34.52 0 0 P____P______P_ SH112000 -20.53 34.65 TY 102 3 -20.42 34.26 4 87 945 -20.53 34.65 TC 102 9 286
2000 SI MM 12:00:00 TS -20.33 34.00 75 960 reunion 0 0 O____O______O_ jtwc_sh SH112000 -20.40 34.10 TY 90 2 -20.20 33.80 4 75 960 4.50 5.00 -20.40 34.10 TC 90 11 294
2000 SI MM 15:00:00 TS -20.07 33.49 0 0 P____P______P_ SH112000 -20.11 33.51 TY 72 1 -19.99 33.43 4 -20.11 33.51 TC 72 11 298
2000 SI MM 18:00:00 TS -19.80 32.93 reunion 0 0 O____O______O_ jtwc_sh SH112000 -19.80 32.90 TS 55 0 -19.80 33.00 8 9.90 -19.80 32.90 TC 55 12 292
2000 SI MM 21:00:00 TS -19.63 32.32 0 0 P____P______P_ SH112000 -19.63 32.29 TS 50 0 -19.64 32.38 8 -19.63 32.29 TC 50 12 284
2000 SI MM 2000-02-23 00:00:00 TS -19.50 31.70 reunion 0 0 O____O______O_ jtwc_sh SH112000 -19.50 31.70 TS 45 0 -19.50 31.70 8 9.90 -19.50 31.70 TC 45 11 285
2000 SI MM 03:00:00 TS -19.34 31.14 0 0 P____P______P_ SH112000 -19.36 31.19 TS 37 0 -19.32 31.05 8 -19.36 31.19 TC 37 11 286
2000 SI MM 06:00:00 TS -19.20 30.62 reunion 0 0 O____O______O_ jtwc_sh SH112000 -19.20 30.70 TD 30 -1 -19.20 30.50 8 9.90 -19.20 30.70 TC 30 10 284
2000 SI MM 09:00:00 TS -19.11 30.15 0 0 P____P______P_ SH112000 -19.01 30.20 TD 27 -1 -19.21 30.11 8 -19.01 30.20 TC 27 8 275
2000 SI MM 12:00:00 TS -19.13 29.77 reunion 0 0 O____O______O_ jtwc_sh SH112000 -18.80 29.70 TD 25 -1 -19.30 29.80 8 9.90 -18.80 29.70 TC 25 7 246
2000 SI MM 15:00:00 NR -19.39 29.49 0 0 _____P________ SH112000 TD -1 -19.39 29.49 8 TC 6 236
2000 SI MM 18:00:00 NR -19.50 29.20 reunion 0 0 _____O________ -1 -19.50 29.20 8 9.90 6 249
2000 SI MM 21:00:00 NR -19.61 28.89 0 0 _____P________ -1 -19.61 28.89 8 6 251
2000 SI MM 2000-02-24 00:00:00 NR -19.70 28.60 reunion 0 0 _____O________ -1 -19.70 28.60 8 9.90 5 254
2000 SI MM 03:00:00 NR -19.75 28.36 0 0 _____P________ -1 -19.75 28.36 8 5 258
2000 SI MM 06:00:00 NR -19.80 28.10 reunion 0 0 _____O________ -1 -19.80 28.10 8 9.90 6 256
2000 SI MM 09:00:00 NR -19.90 27.71 0 0 _____P________ -1 -19.90 27.71 8 8 255
2000 SI MM 12:00:00 NR -20.00 27.30 reunion 0 0 _____O________ -1 -20.00 27.30 8 9.90 7 257
2000 SI MM 15:00:00 NR -20.06 27.00 0 0 _____P________ -1 -20.06 27.00 8 6 260
2000 SI MM 18:00:00 NR -20.10 26.70 reunion 0 0 _____O________ -1 -20.10 26.70 8 9.90 6 261
2000 SI MM 21:00:00 NR -20.16 26.32 0 0 _____P________ -1 -20.16 26.32 8 8 262
2000 SI MM 2000-02-25 00:00:00 NR -20.20 25.90 reunion 0 0 _____O________ -1 -20.20 25.90 8 9.90 8 267
2000 SI MM 03:00:00 NR -20.20 25.45 0 0 _____P________ -1 -20.20 25.45 8 8 270
2000 SI MM 06:00:00 NR -20.20 25.00 reunion 0 0 _____O________ -1 -20.20 25.00 8 9.90 8 267
2000 SI MM 09:00:00 NR -20.25 24.58 0 0 _____P________ -1 -20.25 24.58 8 8 262
2000 SI MM 12:00:00 NR -20.30 24.20 reunion 0 0 _____O________ -1 -20.30 24.20 8 9.90 6 265
2000 SI MM 15:00:00 NR -20.31 23.89 0 0 _____P________ -1 -20.31 23.89 8 6 270
2000 SI MM 18:00:00 NR -20.30 23.60 reunion 0 0 _____O________ -1 -20.30 23.60 8 9.90 6 271
2000 SI MM 21:00:00 NR -20.30 23.26 0 0 _____P________ -1 -20.30 23.26 8 7 270
2000 SI MM 2000-02-26 00:00:00 NR -20.30 22.90 reunion 0 0 _____O________ -1 -20.30 22.90 8 9.90 7 271
2000 SI MM 03:00:00 NR -20.29 22.53 0 0 _____P________ -1 -20.29 22.53 8 7 270
2000 SI MM 06:00:00 NR -20.30 22.20 reunion 0 0 _____O________ -1 -20.30 22.20 8 9.90 6 264
2000 SI MM 09:00:00 NR -20.35 21.94 0 0 _____P________ -1 -20.35 21.94 8 5 258
2000 SI MM 12:00:00 NR -20.40 21.70 reunion 0 0 _____O________ -1 -20.40 21.70 8 9.90 5 264
2000 SI MM 15:00:00 NR -20.40 21.45 0 0 _____P________ -1 -20.40 21.45 8 5 270
2000 SI MM 18:00:00 NR -20.40 21.20 reunion 0 0 _____O________ -1 -20.40 21.20 8 9.90 5 265
2000 SI MM 21:00:00 NR -20.44 20.94 0 0 _____P________ -1 -20.44 20.94 8 5 258
2000 SI MM 2000-02-27 00:00:00 NR -20.50 20.70 reunion 0 0 _____O________ -1 -20.50 20.70 8 9.90 4 256
2000 SI MM 03:00:00 NR -20.55 20.49 0 0 _____P________ -1 -20.55 20.49 8 4 255
2000 SI MM 06:00:00 NR -20.60 20.30 reunion 0 0 _____O________ -1 -20.60 20.30 8 9.90 4 256
2000 SI MM 09:00:00 NR -20.64 20.10 0 0 _____P________ -1 -20.64 20.10 8 4 255
2000 SI MM 12:00:00 NR -20.70 19.90 reunion 0 0 _____O________ -1 -20.70 19.90 8 9.90 4 249
2000 SI MM 15:00:00 NR -20.78 19.70 0 0 _____P________ -1 -20.78 19.70 8 4 242
2000 SI MM 18:00:00 NR -20.90 19.50 reunion 0 0 _____O________ -1 -20.90 19.50 8 9.90 5 235
2000 SI MM 21:00:00 NR -21.05 19.29 0 0 _____P________ -1 -21.05 19.29 8 5 231
2000 SI MM 2000-02-28 00:00:00 NR -21.20 19.10 reunion 0 0 _____O________ -1 -21.20 19.10 8 9.90 4 235
2000 SI MM 03:00:00 NR -21.29 18.93 0 0 _____P________ -1 -21.29 18.93 8 3 235
2000 SI MM 06:00:00 NR -21.40 18.80 reunion 0 0 _____O________ -1 -21.40 18.80 8 9.90 3 214
2000 SI MM 09:00:00 NR -21.58 18.72 0 0 _____P________ -1 -21.58 18.72 8 4 193
2000 SI MM 12:00:00 NR -21.80 18.70 reunion 0 0 _____O________ -1 -21.80 18.70 8 9.90 5 0
2000 SI MM 15:00:00 NR -22.04 18.73 0 0 _____P________ -1 -22.04 18.73 8 5 170
2000 SI MM 18:00:00 NR -22.30 18.80 reunion 0 0 _____O________ -1 -22.30 18.80 8 9.90 5 167
2000 SI MM 21:00:00 NR -22.55 18.86 0 0 _____P________ -1 -22.55 18.86 8 5 170
2000 SI MM 2000-02-29 00:00:00 NR -22.80 18.90 reunion 0 0 _____O________ -1 -22.80 18.90 8 9.90 5 173
2000 SI MM 03:00:00 NR -23.05 18.92 0 0 _____P________ -1 -23.05 18.92 8 5 178
2000 SI MM 06:00:00 NR -23.30 18.90 reunion 0 0 _____O________ -1 -23.30 18.90 8 9.90 5 191
2000 SI MM 09:00:00 NR -23.55 18.82 0 0 _____P________ -1 -23.55 18.82 8 5 200
2000 SI MM 12:00:00 TS -23.80 18.70 reunion 0 _____O________ -1 -23.80 18.70 6 9.90 5 203